Time;durP1;ratioP1;P1;durP2;ratioP2;P2;SDS_P1;SDS_P2;PMS_P1;PMS_P2;Temp;Humidity;BMP_temperature;BMP_pressure;BME280_temperature;BME280_humidity;BME280_pressure;Samples;Min_cycle;Max_cycle;Signal;HPM_P1;HPM_P2
2022/12/12 00:00:52;;;;;;;21.75;8.95;;;;;;;-3.95;100.00;97478.47;2595796;28;20111;-78
2022/12/12 00:02:14;;;;;;;26.15;9.45;;;;;;;-3.77;100.00;97466.78;2595691;28;20064;-79
2022/12/12 00:03:29;;;;;;;19.80;7.35;;;;;;;-3.91;100.00;97476.81;2596099;28;20475;-81
2022/12/12 00:04:45;;;;;;;12.40;5.97;;;;;;;-4.12;100.00;97471.44;2595999;28;20065;-80
2022/12/12 00:06:03;;;;;;;27.33;8.57;;;;;;;-3.86;100.00;97478.63;2596184;28;20060;-79
2022/12/12 00:07:19;;;;;;;14.57;4.78;;;;;;;-3.90;100.00;97474.31;2596010;28;20111;-79
2022/12/12 00:08:35;;;;;;;18.70;6.60;;;;;;;-3.59;100.00;97472.16;2595869;28;20550;-81
2022/12/12 00:09:50;;;;;;;25.15;8.93;;;;;;;-3.74;100.00;97471.94;2596022;28;20053;-80
2022/12/12 00:11:06;;;;;;;21.70;7.95;;;;;;;-3.98;100.00;97469.09;2595757;28;20997;-81
2022/12/12 00:12:22;;;;;;;15.38;6.70;;;;;;;-3.87;100.00;97479.44;2596014;28;20081;-80
2022/12/12 00:13:38;;;;;;;20.55;7.80;;;;;;;-3.83;100.00;97476.09;2595987;28;20057;-81
2022/12/12 00:14:54;;;;;;;20.58;8.35;;;;;;;-3.80;100.00;97469.28;2595097;28;20544;-83
2022/12/12 00:16:10;;;;;;;21.63;9.23;;;;;;;-3.93;100.00;97478.50;2595611;28;20160;-82
2022/12/12 00:17:26;;;;;;;22.85;9.20;;;;;;;-3.79;100.00;97481.25;2595428;28;20868;-81
2022/12/12 00:18:42;;;;;;;23.77;8.35;;;;;;;-3.86;100.00;97482.84;2596109;28;20056;-80
2022/12/12 00:19:57;;;;;;;25.02;9.82;;;;;;;-3.72;100.00;97478.78;2596223;28;20045;-80
2022/12/12 00:21:21;;;;;;;20.77;7.90;;;;;;;-3.94;100.00;97475.06;2595689;28;20404;-80
2022/12/12 00:22:37;;;;;;;17.52;7.50;;;;;;;-3.86;100.00;97473.50;2595989;28;20091;-80
2022/12/12 00:23:53;;;;;;;21.65;10.60;;;;;;;-3.94;100.00;97475.06;2595345;28;20049;-80
2022/12/12 00:25:09;;;;;;;21.73;9.32;;;;;;;-3.76;100.00;97473.63;2595477;28;20120;-79
2022/12/12 00:26:29;;;;;;;17.63;7.38;;;;;;;-3.87;100.00;97476.03;2595901;28;20079;-82
2022/12/12 00:27:44;;;;;;;24.00;8.20;;;;;;;-3.81;100.00;97477.81;2595865;28;20860;-82
2022/12/12 00:29:01;;;;;;;19.10;6.93;;;;;;;-3.84;100.00;97476.09;2595950;28;20059;-79
2022/12/12 00:30:17;;;;;;;22.27;8.63;;;;;;;-3.77;100.00;97477.00;2595843;28;20124;-79
2022/12/12 00:31:32;;;;;;;27.77;9.20;;;;;;;-3.81;100.00;97475.25;2595782;28;20095;-79
2022/12/12 00:32:48;;;;;;;22.38;9.30;;;;;;;-3.64;100.00;97472.91;2596165;28;20057;-79
2022/12/12 00:34:03;;;;;;;22.35;8.95;;;;;;;-3.81;100.00;97475.25;2595794;28;20068;-80
2022/12/12 00:35:19;;;;;;;26.00;9.38;;;;;;;-3.75;100.00;97478.75;2595643;28;20045;-81
2022/12/12 00:36:34;;;;;;;19.83;8.82;;;;;;;-3.72;100.00;97478.78;2595617;28;20290;-82
2022/12/12 00:37:50;;;;;;;19.83;7.60;;;;;;;-3.75;100.00;97480.47;2595890;28;20497;-80
2022/12/12 00:39:06;;;;;;;19.10;8.35;;;;;;;-3.65;100.00;97477.16;2595970;28;20087;-81
2022/12/12 00:40:22;;;;;;;24.13;9.38;;;;;;;-3.60;100.00;97483.22;2595759;28;20081;-79
2022/12/12 00:41:37;;;;;;;21.52;8.95;;;;;;;-3.63;100.00;97480.63;2595275;28;20540;-79
2022/12/12 00:42:53;;;;;;;20.55;8.60;;;;;;;-3.58;100.00;97478.97;2595455;28;20049;-79
2022/12/12 00:44:09;;;;;;;23.48;8.55;;;;;;;-3.64;100.00;97483.16;2595691;28;20061;-82
2022/12/12 00:45:25;;;;;;;23.88;9.23;;;;;;;-3.58;100.00;97483.22;2595692;28;20046;-80
2022/12/12 00:46:41;;;;;;;21.65;9.32;;;;;;;-3.55;100.00;97476.44;2595570;28;20060;-80
2022/12/12 00:47:56;;;;;;;20.80;9.48;;;;;;;-3.49;100.00;97482.47;2595668;28;20479;-80
2022/12/12 00:49:13;;;;;;;21.10;8.85;;;;;;;-3.59;100.00;97486.63;2595793;28;20068;-78
2022/12/12 00:50:29;;;;;;;25.88;10.07;;;;;;;-3.66;100.00;97485.69;2595819;28;20087;-80
2022/12/12 00:51:45;;;;;;;25.40;8.63;;;;;;;-3.55;100.00;97479.00;2595559;28;20807;-83
2022/12/12 00:53:00;;;;;;;23.48;9.05;;;;;;;-3.50;100.00;97488.44;2595584;28;20053;-78
2022/12/12 00:54:16;;;;;;;23.90;9.02;;;;;;;-3.67;100.00;97495.91;2595788;28;20661;-78
2022/12/12 00:55:32;;;;;;;23.05;9.15;;;;;;;-3.51;100.00;97485.03;2595649;28;20045;-78
2022/12/12 00:56:47;;;;;;;21.52;8.02;;;;;;;-3.52;100.00;97485.00;2595770;28;20053;-78
2022/12/12 00:58:03;;;;;;;22.67;8.15;;;;;;;-3.59;100.00;97497.72;2595739;28;20460;-78
2022/12/12 00:59:18;;;;;;;24.13;9.20;;;;;;;-3.52;100.00;97491.00;2595756;28;20053;-79
2022/12/12 01:00:34;;;;;;;20.58;8.98;;;;;;;-3.60;100.00;97487.47;2595176;28;20053;-78
2022/12/12 01:01:49;;;;;;;22.77;8.95;;;;;;;-3.68;100.00;97484.81;2595812;28;20365;-78
2022/12/12 01:03:05;;;;;;;19.63;8.60;;;;;;;-3.48;100.00;97484.22;2595756;28;20049;-81
2022/12/12 01:04:21;;;;;;;24.60;9.68;;;;;;;-3.51;100.00;97486.72;2595484;28;20072;-79
2022/12/12 01:05:36;;;;;;;18.88;7.45;;;;;;;-3.58;100.00;97493.44;2595896;28;20053;-79
2022/12/12 01:06:52;;;;;;;28.10;10.80;;;;;;;-3.50;100.00;97489.31;2595080;28;20111;-78
2022/12/12 01:08:08;;;;;;;22.83;8.68;;;;;;;-3.35;100.00;97491.22;2595128;28;20065;-78
2022/12/12 01:09:23;;;;;;;22.98;9.70;;;;;;;-3.42;100.00;97487.72;2595685;28;20056;-78
2022/12/12 01:10:39;;;;;;;26.80;10.77;;;;;;;-3.55;100.00;97490.97;2595319;28;20443;-78
2022/12/12 01:11:54;;;;;;;25.35;9.00;;;;;;;-3.53;100.00;97496.94;2595315;28;20420;-79
2022/12/12 01:13:10;;;;;;;23.20;9.95;;;;;;;-3.54;100.00;97490.13;2595714;28;20060;-80
2022/12/12 01:14:26;;;;;;;20.08;8.55;;;;;;;-3.46;100.00;97490.22;2595336;28;20057;-78
2022/12/12 01:15:42;;;;;;;22.35;9.15;;;;;;;-3.43;100.00;97495.34;2595616;28;20115;-81
2022/12/12 01:16:57;;;;;;;24.55;10.18;;;;;;;-3.47;100.00;97501.28;2595310;28;20041;-80
2022/12/12 01:18:13;;;;;;;25.73;10.27;;;;;;;-3.52;100.00;97493.56;2595003;28;20060;-81
2022/12/12 01:19:29;;;;;;;21.95;9.73;;;;;;;-3.48;100.00;97495.31;2595411;28;20091;-79
2022/12/12 01:20:45;;;;;;;28.73;11.63;;;;;;;-3.46;100.00;97493.63;2595224;28;20468;-78
2022/12/12 01:22:00;;;;;;;24.67;9.82;;;;;;;-3.62;100.00;97495.13;2595594;28;20072;-78
2022/12/12 01:23:16;;;;;;;23.33;9.77;;;;;;;-3.53;100.00;97496.94;2595199;28;20263;-81
2022/12/12 01:24:32;;;;;;;24.00;9.27;;;;;;;-3.43;100.00;97495.34;2595562;28;20054;-80
2022/12/12 01:25:48;;;;;;;26.05;10.07;;;;;;;-3.61;100.00;97498.53;2595767;28;20123;-78
2022/12/12 01:27:03;;;;;;;23.33;10.10;;;;;;;-3.44;100.00;97496.19;2595666;28;20050;-79
2022/12/12 01:28:19;;;;;;;25.02;9.85;;;;;;;-3.36;100.00;97494.56;2595828;28;20392;-78
2022/12/12 01:29:35;;;;;;;24.42;9.50;;;;;;;-3.57;100.00;97496.03;2595301;28;20463;-82
2022/12/12 01:30:51;;;;;;;21.85;8.65;;;;;;;-3.77;100.00;97497.47;2595140;28;20136;-78
2022/12/12 01:32:06;;;;;;;25.10;9.40;;;;;;;-3.52;100.00;97503.78;2594997;28;20045;-78
2022/12/12 01:33:22;;;;;;;22.02;8.95;;;;;;;-3.60;100.00;97500.25;2594879;28;20136;-78
2022/12/12 01:34:37;;;;;;;22.55;8.82;;;;;;;-3.72;100.00;97500.97;2594872;28;20079;-79
2022/12/12 01:35:53;;;;;;;27.13;9.82;;;;;;;-3.67;100.00;97501.03;2595421;28;20053;-78
2022/12/12 01:37:08;;;;;;;22.40;8.80;;;;;;;-3.61;100.00;97503.66;2595765;28;20465;-77
2022/12/12 01:38:24;;;;;;;24.27;8.68;;;;;;;-3.76;100.00;97501.75;2597128;28;20049;-78
2022/12/12 01:39:40;;;;;;;21.92;9.07;;;;;;;-3.49;100.00;97493.59;2597450;28;20061;-79
2022/12/12 01:40:56;;;;;;;21.50;8.13;;;;;;;-3.65;100.00;97495.06;2596937;28;20064;-79
2022/12/12 01:42:18;;;;;;;25.25;10.85;;;;;;;-3.61;100.00;97496.84;2597116;28;20045;-82
2022/12/12 01:43:34;;;;;;;21.30;8.57;;;;;;;-3.75;100.00;97499.22;2596824;28;20061;-85
2022/12/12 01:44:51;;;;;;;23.95;9.70;;;;;;;-3.54;100.00;97495.22;2597092;28;20111;-81
2022/12/12 01:46:38;;;;;;;25.95;8.65;;;;;;;-3.52;100.00;97495.22;2597102;28;20556;-78
2022/12/12 01:47:53;;;;;;;25.60;8.50;;;;;;;-3.28;100.00;97500.66;2597244;28;20548;-80
2022/12/12 01:49:19;;;;;;;24.15;9.35;;;;;;;-3.24;100.00;97495.56;2597355;28;20057;-80
2022/12/12 01:50:35;;;;;;;27.13;9.57;;;;;;;-3.26;100.00;97495.56;2597216;28;20099;-80
2022/12/12 01:51:55;;;;;;;24.90;9.57;;;;;;;-3.10;100.00;97491.47;2596945;28;20095;-80
2022/12/12 01:53:13;;;;;;;21.88;9.52;;;;;;;-3.05;100.00;97491.53;2597245;28;20052;-80
2022/12/12 01:54:33;;;;;;;20.70;8.23;;;;;;;-3.00;100.00;97492.44;2597218;28;20064;-79
2022/12/12 01:55:49;;;;;;;22.38;8.32;;;;;;;-3.03;100.00;97494.94;2597241;28;20058;-79
2022/12/12 01:57:09;;;;;;;19.92;8.38;;;;;;;-3.44;100.00;97497.03;2597194;28;20075;-78
2022/12/12 01:58:26;;;;;;;22.10;8.85;;;;;;;-3.50;100.00;97493.56;2597161;28;20088;-78
2022/12/12 01:59:43;;;;;;;20.60;7.90;;;;;;;-3.38;100.00;97500.53;2597220;28;20476;-80
2022/12/12 02:00:58;;;;;;;19.08;6.90;;;;;;;-3.51;100.00;97496.94;2596746;28;20069;-79
2022/12/12 02:02:14;;;;;;;21.88;8.82;;;;;;;-3.37;100.00;97494.56;2597350;28;20053;-78
2022/12/12 02:03:29;;;;;;;19.48;9.07;;;;;;;-3.10;100.00;97500.88;2596992;28;20443;-79
2022/12/12 02:04:45;;;;;;;20.45;8.63;;;;;;;-3.11;100.00;97502.56;2596971;28;20060;-79
2022/12/12 02:06:04;;;;;;;20.80;8.82;;;;;;;-3.19;100.00;97501.63;2597043;28;20490;-78
2022/12/12 02:07:20;;;;;;;18.17;7.90;;;;;;;-3.22;100.00;97494.75;2596752;28;20173;-81
2022/12/12 02:08:36;;;;;;;19.75;7.50;;;;;;;-3.31;100.00;97499.75;2597165;28;20060;-79
2022/12/12 02:09:52;;;;;;;20.02;8.13;;;;;;;-3.16;100.00;97499.09;2597198;28;20080;-79
2022/12/12 02:11:08;;;;;;;20.48;8.80;;;;;;;-3.24;100.00;97498.13;2596720;28;20049;-79
2022/12/12 02:12:23;;;;;;;22.27;8.45;;;;;;;-2.91;100.00;97496.81;2597092;28;20103;-80
2022/12/12 02:13:39;;;;;;;19.40;7.20;;;;;;;-3.27;100.00;97499.81;2596882;28;20155;-80
2022/12/12 02:14:55;;;;;;;18.70;7.90;;;;;;;-3.18;100.00;97493.09;2596925;28;20084;-81
2022/12/12 02:16:26;;;;;;;17.30;6.88;;;;;;;-3.00;100.00;97492.44;2596712;28;20124;-80
2022/12/12 02:18:04;;;;;;;18.77;7.72;;;;;;;-3.20;100.00;97489.66;2597091;28;20508;-80
2022/12/12 02:20:02;;;;;;;17.30;7.50;;;;;;;-3.17;100.00;97493.09;2596670;28;20053;-79
2022/12/12 02:21:40;;;;;;;22.65;7.70;;;;;;;-3.32;100.00;97493.78;2590232;28;20077;-82
2022/12/12 02:23:26;;;;;;;19.33;7.80;;;;;;;-3.29;100.00;97488.72;2597065;28;20060;-80
2022/12/12 02:25:32;;;;;;;20.83;7.90;;;;;;;-3.08;100.00;97494.06;2590446;28;21269;-82
2022/12/12 02:27:14;;;;;;;17.10;6.50;;;;;;;-2.98;100.00;97491.59;2585063;28;20521;-84
2022/12/12 02:28:32;;;;;;;20.50;7.88;;;;;;;-2.96;100.00;97490.75;2585260;28;20045;-79
2022/12/12 02:30:17;;;;;;;21.25;8.10;;;;;;;-2.99;100.00;97486.47;2585072;28;20053;-80
2022/12/12 02:31:42;;;;;;;21.30;7.80;;;;;;;-2.94;100.00;97495.06;2585496;28;20257;-81
2022/12/12 02:33:48;;;;;;;25.10;8.55;;;;;;;-2.82;100.00;97486.63;2596947;28;20064;-80
2022/12/12 02:35:25;;;;;;;19.52;7.38;;;;;;;-3.04;100.00;97491.56;2584903;28;20087;-85
2022/12/12 02:37:08;;;;;;;18.15;7.03;;;;;;;-3.02;100.00;97491.53;2586864;28;20613;-80
2022/12/12 02:38:28;;;;;;;;;;;;;;;-3.03;100.00;97498.38;2597290;28;20481;-81
2022/12/12 02:39:58;;;;;;;21.73;7.15;;;;;;;-3.04;100.00;97496.66;2596625;28;19956;-79
2022/12/12 02:41:29;;;;;;;17.33;6.82;;;;;;;-3.09;100.00;97495.75;2596831;28;20080;-79
2022/12/12 02:43:09;;;;;;;21.02;6.28;;;;;;;-3.24;100.00;97495.56;2596529;28;20061;-80
2022/12/12 02:44:43;;;;;;;15.02;6.20;;;;;;;-3.18;100.00;97498.22;2596828;28;20072;-79
2022/12/12 02:46:06;;;;;;;16.13;5.95;;;;;;;-3.25;100.00;97502.41;2596592;28;20054;-80
2022/12/12 02:47:37;;;;;;;15.77;6.65;;;;;;;-3.37;100.00;97495.41;2596699;28;20547;-80
2022/12/12 02:49:12;;;;;;;16.45;6.65;;;;;;;-3.15;100.00;97498.25;2596451;28;20064;-80
2022/12/12 02:50:29;;;;;;;14.68;6.20;;;;;;;-3.21;100.00;97493.03;2596732;28;20076;-79
2022/12/12 02:51:46;;;;;;;15.27;6.50;;;;;;;-3.36;100.00;97493.72;2596421;28;20060;-79
2022/12/12 02:53:04;;;;;;;13.27;6.68;;;;;;;-3.34;100.00;97494.59;2596623;28;20076;-81
2022/12/12 02:54:22;;;;;;;16.00;6.13;;;;;;;-3.37;100.00;97495.41;2596394;28;20056;-80
2022/12/12 02:55:37;;;;;;;14.90;5.93;;;;;;;-3.63;100.00;97497.66;2596381;28;20045;-80
2022/12/12 02:56:54;;;;;;;14.95;6.30;;;;;;;-3.55;100.00;97498.63;2596862;28;20492;-82
2022/12/12 02:58:12;;;;;;;17.63;7.07;;;;;;;-3.52;100.00;97498.66;2596765;28;20049;-80
2022/12/12 02:59:39;;;;;;;19.92;6.88;;;;;;;-3.34;100.00;97492.94;2596693;28;20136;-79
2022/12/12 03:01:22;;;;;;;18.92;7.38;;;;;;;-3.58;100.00;97499.44;2596338;28;20064;-80
2022/12/12 03:02:50;;;;;;;17.13;6.65;;;;;;;-3.58;100.00;97493.44;2596595;28;20067;-80
2022/12/12 03:07:50;;;;;;;17.13;7.45;;;;;;;-3.28;100.00;97495.53;2596328;28;20168;-84
2022/12/12 03:09:17;;;;;;;16.02;6.38;;;;;;;-3.19;100.00;97499.06;2596618;28;20076;-80
2022/12/12 03:10:53;;;;;;;16.08;6.53;;;;;;;-3.13;100.00;97499.13;2596759;28;20549;-83
2022/12/12 03:12:22;;;;;;;19.05;7.15;;;;;;;-3.16;100.00;97507.63;2596484;28;20056;-80
2022/12/12 03:14:07;;;;;;;16.55;7.30;;;;;;;-3.13;100.00;97506.81;2596687;28;20054;-85
2022/12/12 03:15:29;;;;;;;15.77;6.53;;;;;;;-3.63;100.00;97505.34;2596290;28;20091;-78
2022/12/12 03:17:20;;;;;;;17.05;7.15;;;;;;;-3.60;100.00;97503.69;2596579;28;20419;-80
2022/12/12 03:18:48;;;;;;;19.27;7.15;;;;;;;-3.36;100.00;97497.13;2578035;28;20050;-80
2022/12/12 03:20:25;;;;;;;17.65;6.60;;;;;;;-3.28;100.00;97499.81;2600413;28;20096;-81
2022/12/12 03:21:50;;;;;;;14.38;6.57;;;;;;;-3.56;100.00;97502.03;2596478;28;20041;-80
2022/12/12 03:23:14;;;;;;;15.63;6.55;;;;;;;-3.61;100.00;97508.78;2596499;28;20123;-78
2022/12/12 03:25:00;;;;;;;19.40;6.75;;;;;;;-3.73;100.00;97515.44;2596310;28;20861;-79
2022/12/12 03:26:24;;;;;;;16.52;6.20;;;;;;;-3.69;100.00;97503.56;2596164;28;20049;-78
2022/12/12 03:28:02;;;;;;;14.27;5.82;;;;;;;-3.71;100.00;97508.63;2596861;28;20057;-80
2022/12/12 03:29:31;;;;;;;17.48;7.30;;;;;;;-3.52;100.00;97508.91;2596328;28;20132;-80
2022/12/12 03:30:54;;;;;;;15.18;6.07;;;;;;;-3.49;100.00;97510.63;2596430;28;20484;-81
2022/12/12 03:32:18;;;;;;;18.25;6.85;;;;;;;-3.47;100.00;97497.00;2596638;28;21059;-79
2022/12/12 03:33:48;;;;;;;14.95;6.43;;;;;;;-3.52;100.00;97503.78;2596484;28;20480;-78
2022/12/12 03:35:16;;;;;;;16.13;6.32;;;;;;;-3.58;100.00;97504.56;2596297;28;20207;-78
2022/12/12 03:36:38;;;;;;;12.80;6.05;;;;;;;-3.61;100.00;97504.53;2596227;28;20061;-79
2022/12/12 03:37:59;;;;;;;15.00;6.38;;;;;;;-3.47;100.00;97497.00;2596339;28;20432;-79
2022/12/12 03:39:41;;;;;;;21.83;7.88;;;;;;;-3.47;100.00;97506.41;2596338;28;20052;-78
2022/12/12 03:41:04;;;;;;;20.10;6.82;;;;;;;-3.47;100.00;97498.72;2595405;28;20127;-83
2022/12/12 03:42:28;;;;;;;15.80;6.65;;;;;;;-3.42;100.00;97500.50;2596618;28;20046;-79
2022/12/12 03:43:54;;;;;;;17.60;7.43;;;;;;;-3.38;100.00;97492.88;2596252;28;20151;-81
2022/12/12 03:45:22;;;;;;;17.63;6.95;;;;;;;-3.32;100.00;97491.22;2596344;28;20041;-78
2022/12/12 03:46:44;;;;;;;14.38;6.68;;;;;;;-3.29;100.00;97496.38;2596481;28;20536;-79
2022/12/12 03:48:28;;;;;;;18.00;6.80;;;;;;;-3.45;100.00;97490.22;2596270;28;20057;-78
2022/12/12 03:50:03;;;;;;;15.93;5.97;;;;;;;-3.64;100.00;97493.38;2594483;28;20049;-79
2022/12/12 03:51:33;;;;;;;13.80;6.00;;;;;;;-3.44;100.00;97485.97;2595800;28;20139;-84
2022/12/12 03:52:55;;;;;;;14.60;5.93;;;;;;;-3.31;100.00;97492.94;2596174;28;20140;-79
2022/12/12 03:54:40;;;;;;;20.05;6.75;;;;;;;-3.41;100.00;97486.88;2596224;28;20076;-79
2022/12/12 03:55:59;;;;;;;17.67;6.57;;;;;;;-3.48;100.00;97489.34;2595762;28;20819;-79
2022/12/12 03:57:20;;;;;;;17.40;6.80;;;;;;;-3.51;100.00;97495.25;2596361;28;20045;-80
2022/12/12 03:58:52;;;;;;;15.13;6.50;;;;;;;-3.43;100.00;97492.81;2596225;28;20488;-79
2022/12/12 04:00:12;;;;;;;18.95;7.38;;;;;;;-3.22;100.00;97494.75;2595179;28;20848;-79
2022/12/12 04:01:38;;;;;;;21.08;7.60;;;;;;;-3.15;100.00;97500.81;2596396;28;20293;-80
2022/12/12 04:03:07;;;;;;;18.27;7.85;;;;;;;-3.24;100.00;97493.00;2596270;28;20058;-79
2022/12/12 04:04:33;;;;;;;21.58;7.63;;;;;;;-3.13;100.00;97494.88;2595946;28;20480;-79
2022/12/12 04:08:03;;;;;;;21.02;7.05;;;;;;;-3.23;100.00;97500.72;2595865;28;20107;-81
2022/12/12 04:13:07;;;;;;;15.40;6.30;;;;;;;-3.17;100.00;97495.66;2596278;28;20125;-79
2022/12/12 04:14:50;;;;;;;18.33;6.78;;;;;;;-3.12;100.00;97498.28;2595955;28;20056;-86
2022/12/12 04:16:18;;;;;;;17.00;5.70;;;;;;;-3.09;100.00;97494.91;2596064;28;20082;-79
2022/12/12 04:17:49;;;;;;;16.85;6.50;;;;;;;-3.05;100.00;97497.50;2595819;28;20061;-80
2022/12/12 04:19:12;;;;;;;16.85;6.82;;;;;;;-3.05;100.00;97505.19;2595814;28;20049;-80
2022/12/12 04:24:45;;;;;;;17.80;6.40;;;;;;;-2.93;100.00;97499.34;2595872;28;20127;-78
2022/12/12 04:27:53;;;;;;;17.63;6.95;;;;;;;-2.98;100.00;97499.28;2595675;28;20598;-81
2022/12/12 04:29:18;;;;;;;16.60;6.45;;;;;;;-3.04;100.00;97495.78;2595469;28;20064;-78
2022/12/12 04:30:35;;;;;;;17.08;7.15;;;;;;;-2.95;100.00;97508.72;2595460;28;20187;-78
2022/12/12 04:31:57;;;;;;;17.35;7.30;;;;;;;-2.89;100.00;97507.91;2595079;28;20045;-79
2022/12/12 04:33:15;;;;;;;;;;;;;;;-2.82;100.00;97496.88;2595441;28;20505;-79
2022/12/12 04:35:09;;;;;;;13.43;5.72;;;;;;;-2.85;100.00;97501.97;2594911;28;19952;-80
2022/12/12 04:36:25;;;;;;;17.90;6.88;;;;;;;-2.87;100.00;97507.06;2595769;28;20136;-78
2022/12/12 04:37:50;;;;;;;19.15;7.18;;;;;;;-2.93;100.00;97506.16;2595769;28;20507;-79
2022/12/12 04:39:08;;;;;;;14.85;5.57;;;;;;;-3.15;100.00;97500.81;2595970;28;20236;-78
2022/12/12 04:40:25;;;;;;;16.30;5.95;;;;;;;-3.22;100.00;97506.69;2595696;28;20095;-81
2022/12/12 04:41:45;;;;;;;16.98;6.50;;;;;;;-2.95;100.00;97502.72;2595908;28;20041;-81
2022/12/12 04:43:09;;;;;;;17.75;6.75;;;;;;;-2.94;100.00;97501.88;2595594;28;20045;-78
2022/12/12 04:44:28;;;;;;;19.15;7.13;;;;;;;-2.98;100.00;97506.97;2595852;28;20737;-81
2022/12/12 04:45:49;;;;;;;16.45;7.70;;;;;;;-2.88;100.00;97505.34;2595652;28;20073;-80
2022/12/12 04:47:07;;;;;;;14.20;6.88;;;;;;;-2.84;100.00;97502.00;2595869;28;20049;-79
2022/12/12 04:48:55;;;;;;;16.58;6.65;;;;;;;-2.75;100.00;97505.47;2595899;28;20064;-80
2022/12/12 04:50:12;;;;;;;15.73;6.50;;;;;;;-2.75;100.00;97503.78;2583868;28;20107;-82
2022/12/12 04:51:35;;;;;;;13.63;6.05;;;;;;;-2.73;100.00;97503.78;2595775;28;20046;-84
2022/12/12 04:52:54;;;;;;;17.50;6.85;;;;;;;-2.77;100.00;97505.50;2595442;28;20057;-85
2022/12/12 04:54:22;;;;;;;17.83;6.97;;;;;;;-2.95;100.00;97505.28;2595615;28;20055;-81
2022/12/12 04:55:45;;;;;;;20.35;6.47;;;;;;;-2.89;100.00;97513.03;2595574;28;20170;-81
2022/12/12 04:57:05;;;;;;;18.40;7.03;;;;;;;-2.80;100.00;97509.72;2595824;28;20054;-80
2022/12/12 04:58:22;;;;;;;15.68;7.05;;;;;;;-2.98;100.00;97511.25;2595536;28;20057;-81
2022/12/12 04:59:38;;;;;;;16.83;6.43;;;;;;;-2.94;100.00;97517.22;2595544;28;20137;-80
2022/12/12 05:01:13;;;;;;;16.40;6.28;;;;;;;-2.90;100.00;97508.75;2595137;28;20129;-81
2022/12/12 05:02:36;;;;;;;18.80;7.45;;;;;;;-2.77;100.00;97505.50;2595064;28;20049;-81
2022/12/12 05:04:08;;;;;;;16.20;6.57;;;;;;;-2.86;100.00;97511.38;2595712;28;20072;-81
2022/12/12 05:05:44;;;;;;;17.40;6.90;;;;;;;-2.67;100.00;97505.56;2595477;28;20060;-81
2022/12/12 05:07:08;;;;;;;16.30;6.38;;;;;;;-2.66;100.00;97507.28;2595216;28;20559;-81
2022/12/12 05:08:43;;;;;;;20.23;7.82;;;;;;;-2.71;100.00;97510.66;2595816;28;20053;-81
2022/12/12 05:09:59;;;;;;;19.92;7.20;;;;;;;-2.77;100.00;97509.75;2595253;28;20049;-82
2022/12/12 05:11:17;;;;;;;18.17;7.47;;;;;;;-2.71;100.00;97518.34;2596406;28;20488;-78
2022/12/12 05:12:52;;;;;;;17.17;7.15;;;;;;;-2.81;100.00;97518.25;2597570;28;20050;-81
2022/12/12 05:14:09;;;;;;;16.50;7.10;;;;;;;-2.77;100.00;97509.75;2597524;28;20060;-85
2022/12/12 05:15:26;;;;;;;19.73;7.28;;;;;;;-2.78;100.00;97511.47;2597448;28;20050;-81
2022/12/12 05:16:45;;;;;;;19.13;7.15;;;;;;;-2.66;100.00;97512.41;2597482;28;20060;-84
2022/12/12 05:18:07;;;;;;;18.27;7.53;;;;;;;-2.66;100.00;97512.41;2597316;28;20045;-81
2022/12/12 05:19:23;;;;;;;15.13;7.10;;;;;;;-2.71;100.00;97515.78;2597611;28;20050;-80
2022/12/12 05:20:39;;;;;;;17.05;6.75;;;;;;;-2.73;100.00;97514.91;2597769;28;20144;-81
2022/12/12 05:21:54;;;;;;;18.15;7.20;;;;;;;-2.77;100.00;97515.72;2597303;28;20046;-80
2022/12/12 05:23:10;;;;;;;16.98;7.47;;;;;;;-2.73;100.00;97516.59;2600892;28;20055;-82
2022/12/12 05:24:30;;;;;;;14.40;6.60;;;;;;;-2.78;100.00;97524.25;2597376;28;20110;-81
2022/12/12 05:25:45;;;;;;;17.38;7.30;;;;;;;-2.66;100.00;97527.78;2597730;28;20132;-81
2022/12/12 05:27:01;;;;;;;19.75;7.72;;;;;;;-2.78;100.00;97520.84;2597442;28;20365;-80
2022/12/12 05:28:16;;;;;;;15.80;5.70;;;;;;;-2.61;100.00;97528.69;2596870;28;20564;-80
2022/12/12 05:29:32;;;;;;;16.15;6.68;;;;;;;-2.65;100.00;97524.41;2597237;28;20053;-79
2022/12/12 05:30:48;;;;;;;14.85;5.55;;;;;;;-2.52;100.00;97526.19;2597535;28;20939;-79
2022/12/12 05:32:03;;;;;;;17.65;7.05;;;;;;;-2.60;100.00;97528.69;2597386;28;20049;-82
2022/12/12 05:33:22;;;;;;;14.43;6.60;;;;;;;-2.57;100.00;97530.44;2595691;28;20046;-80
2022/12/12 05:34:37;;;;;;;18.08;7.03;;;;;;;-2.60;100.00;97523.56;2595847;28;20049;-80
2022/12/12 05:35:53;;;;;;;18.92;6.78;;;;;;;-2.55;100.00;97531.31;2597403;28;20492;-80
2022/12/12 05:37:08;;;;;;;15.15;6.57;;;;;;;-2.61;100.00;97526.97;2597210;28;20053;-80
2022/12/12 05:38:24;;;;;;;17.95;6.50;;;;;;;-2.74;100.00;97535.38;2597368;28;20057;-85
2022/12/12 05:39:40;;;;;;;17.85;7.07;;;;;;;-2.80;100.00;97535.34;2597783;28;20053;-81
2022/12/12 05:40:55;;;;;;;16.15;6.85;;;;;;;-2.71;100.00;97538.00;2597696;28;20049;-80
2022/12/12 05:42:11;;;;;;;16.38;6.32;;;;;;;-2.78;100.00;97536.19;2597418;28;20046;-78
2022/12/12 05:43:27;;;;;;;18.58;7.28;;;;;;;-2.66;100.00;97538.03;2597489;28;20503;-78
2022/12/12 05:44:42;;;;;;;15.35;6.40;;;;;;;-2.88;100.00;97538.66;2597569;28;20459;-78
2022/12/12 05:45:58;;;;;;;17.27;6.75;;;;;;;-2.84;100.00;97535.31;2597001;28;20045;-79
2022/12/12 05:47:13;;;;;;;15.27;5.78;;;;;;;-2.99;100.00;97537.69;2597463;28;20107;-79
2022/12/12 05:48:29;;;;;;;18.23;6.97;;;;;;;-2.81;100.00;97538.75;2596623;28;20080;-84
2022/12/12 05:49:45;;;;;;;16.17;6.55;;;;;;;-2.77;100.00;97537.91;2597044;28;20053;-83
2022/12/12 05:51:01;;;;;;;18.80;7.35;;;;;;;-2.82;100.00;97539.59;2597044;28;20152;-80
2022/12/12 05:52:17;;;;;;;16.52;6.72;;;;;;;-2.87;100.00;97542.94;2594994;28;20512;-79
2022/12/12 05:53:33;;;;;;;20.35;7.50;;;;;;;-2.89;100.00;97541.22;2596530;28;20105;-81
2022/12/12 05:54:49;;;;;;;19.77;7.57;;;;;;;-2.85;100.00;97536.16;2597201;28;20547;-80
2022/12/12 05:56:05;;;;;;;17.60;7.45;;;;;;;-2.82;100.00;97540.44;2597000;28;20123;-80
2022/12/12 05:57:20;;;;;;;16.83;7.13;;;;;;;-2.66;100.00;97546.59;2597267;28;20393;-81
2022/12/12 05:58:36;;;;;;;19.40;7.35;;;;;;;-2.75;100.00;97544.78;2597314;28;20048;-81
2022/12/12 05:59:52;;;;;;;18.13;7.38;;;;;;;-2.66;100.00;97543.16;2596847;28;20455;-81
2022/12/12 06:01:08;;;;;;;20.63;7.75;;;;;;;-2.66;100.00;97538.91;2596630;28;20611;-80
2022/12/12 06:02:23;;;;;;;21.98;8.15;;;;;;;-2.61;100.00;97546.63;2596759;28;20408;-80
2022/12/12 06:03:39;;;;;;;20.50;7.28;;;;;;;-2.65;100.00;97545.72;2595582;28;20060;-81
2022/12/12 06:04:59;;;;;;;19.15;7.82;;;;;;;-2.55;100.00;97551.81;2595522;28;20568;-83
2022/12/12 06:06:15;;;;;;;20.98;7.80;;;;;;;-2.61;100.00;97542.34;2597578;28;20136;-81
2022/12/12 06:07:30;;;;;;;20.55;7.45;;;;;;;-2.67;100.00;97544.00;2596489;28;20168;-81
2022/12/12 06:08:46;;;;;;;14.77;7.05;;;;;;;-2.70;100.00;97549.97;2596689;28;20119;-82
2022/12/12 06:10:02;;;;;;;16.77;6.75;;;;;;;-2.60;100.00;97544.06;2596567;28;20177;-82
2022/12/12 06:11:17;;;;;;;17.95;8.07;;;;;;;-2.66;100.00;97548.28;2596862;28;20050;-80
2022/12/12 06:12:33;;;;;;;18.90;7.60;;;;;;;-2.63;100.00;97550.88;2597075;28;20056;-84
2022/12/12 06:13:48;;;;;;;16.17;6.88;;;;;;;-2.56;100.00;97543.28;2596585;28;20446;-81
2022/12/12 06:15:05;;;;;;;16.80;7.57;;;;;;;-2.54;100.00;97547.56;2597343;28;20107;-80
2022/12/12 06:16:21;;;;;;;18.33;7.28;;;;;;;-2.95;100.00;97548.81;2597317;28;20196;-80
2022/12/12 06:17:36;;;;;;;18.13;6.85;;;;;;;-2.88;100.00;97553.19;2597280;28;20057;-79
2022/12/12 06:18:54;;;;;;;17.13;7.00;;;;;;;-2.89;100.00;97551.47;2597178;28;20057;-81
2022/12/12 06:20:09;;;;;;;19.63;7.20;;;;;;;-2.84;100.00;97554.91;2596925;28;20049;-81
2022/12/12 06:21:26;;;;;;;16.23;6.70;;;;;;;-2.94;100.00;97553.97;2596670;28;20084;-84
2022/12/12 06:22:41;;;;;;;18.02;7.32;;;;;;;-2.81;100.00;97546.44;2596209;28;20077;-85
2022/12/12 06:23:57;;;;;;;20.05;7.18;;;;;;;-3.04;100.00;97553.00;2596876;28;20152;-80
2022/12/12 06:25:13;;;;;;;14.77;6.75;;;;;;;-3.03;100.00;97553.84;2596740;28;20057;-81
2022/12/12 06:26:30;;;;;;;14.25;5.00;;;;;;;-3.03;100.00;97554.72;2597064;28;20604;-78
2022/12/12 06:27:47;;;;;;;18.10;6.32;;;;;;;-3.05;100.00;97553.84;2596581;28;20124;-78
2022/12/12 06:29:02;;;;;;;13.95;5.25;;;;;;;-3.19;100.00;97552.81;2596554;28;20057;-78